createdAt,value
2018-07-30T00:00:34.303Z,7.00
2018-07-30T00:03:01.214Z,7.80
2018-07-30T00:05:28.182Z,7.50
2018-07-30T00:07:55.072Z,7.03
2018-07-30T00:10:22.012Z,8.07
2018-07-30T00:12:48.942Z,7.23
2018-07-30T00:15:15.868Z,7.60
2018-07-30T00:17:42.833Z,7.40
2018-07-30T00:20:09.735Z,7.30
2018-07-30T00:22:36.635Z,7.43
2018-07-30T00:25:03.770Z,7.37
2018-07-30T00:27:30.684Z,7.03
2018-07-30T00:29:57.638Z,7.50
2018-07-30T00:32:24.559Z,7.20
2018-07-30T00:34:51.464Z,7.10
2018-07-30T00:37:18.428Z,7.67
2018-07-30T00:39:45.346Z,6.73
2018-07-30T00:42:12.260Z,7.00
2018-07-30T00:44:39.312Z,7.70
2018-07-30T00:47:06.246Z,7.93
2018-07-30T00:49:33.209Z,7.57
2018-07-30T00:52:00.137Z,7.73
2018-07-30T00:54:27.066Z,7.50
2018-07-30T00:56:54.075Z,7.60
2018-07-30T00:59:20.892Z,7.27
2018-07-30T01:01:47.844Z,7.80
2018-07-30T01:04:14.763Z,8.13
2018-07-30T01:06:41.665Z,7.07
2018-07-30T01:09:09.488Z,7.50
2018-07-30T01:11:36.421Z,8.17
2018-07-30T01:14:03.375Z,7.30
2018-07-30T01:16:30.273Z,7.70
2018-07-30T01:18:57.207Z,7.80
2018-07-30T01:21:24.135Z,8.00
2018-07-30T01:23:51.079Z,7.40
2018-07-30T01:26:23.828Z,8.03
2018-07-30T01:28:50.830Z,7.63
2018-07-30T01:31:17.724Z,7.60
2018-07-30T01:33:44.675Z,7.60
2018-07-30T01:36:11.591Z,7.47
2018-07-30T01:38:38.492Z,7.20
2018-07-30T01:41:05.599Z,7.30
2018-07-30T01:43:33.337Z,7.10
2018-07-30T01:46:00.725Z,6.90
2018-07-30T01:48:27.696Z,6.90
2018-07-30T01:50:54.669Z,6.87
2018-07-30T01:53:21.615Z,6.73
2018-07-30T01:55:48.534Z,6.63
2018-07-30T01:58:15.496Z,7.00
2018-07-30T02:00:42.426Z,6.33
2018-07-30T02:03:09.352Z,6.67
2018-07-30T02:05:36.317Z,6.50
2018-07-30T02:08:03.261Z,7.23
2018-07-30T02:10:30.196Z,6.57
2018-07-30T02:12:57.136Z,6.87
2018-07-30T02:15:24.093Z,6.90
2018-07-30T02:17:51.033Z,7.13
2018-07-30T02:20:17.988Z,7.23
2018-07-30T02:22:44.919Z,6.10
2018-07-30T02:25:11.878Z,6.60
2018-07-30T02:27:38.804Z,7.50
2018-07-30T02:30:07.002Z,6.97
2018-07-30T02:32:33.919Z,6.90
2018-07-30T02:35:00.897Z,7.13
2018-07-30T02:37:27.857Z,7.10
2018-07-30T02:39:54.787Z,6.80
2018-07-30T02:42:21.757Z,6.93
2018-07-30T02:44:48.701Z,6.70
2018-07-30T02:47:15.617Z,7.37
2018-07-30T02:49:42.664Z,6.90
2018-07-30T02:52:10.132Z,7.00
2018-07-30T02:54:37.052Z,6.70
2018-07-30T02:57:04.035Z,6.63
2018-07-30T02:59:30.944Z,6.67
2018-07-30T03:01:57.898Z,6.33
2018-07-30T03:04:24.808Z,6.53
2018-07-30T03:06:51.784Z,6.80
2018-07-30T03:09:18.766Z,6.50
2018-07-30T03:11:45.691Z,6.43
2018-07-30T03:14:12.632Z,6.53
2018-07-30T03:16:39.560Z,7.00
2018-07-30T03:19:06.503Z,6.60
2018-07-30T03:21:33.444Z,7.13
2018-07-30T03:24:00.458Z,6.80
2018-07-30T03:26:27.356Z,6.40
2018-07-30T03:28:54.285Z,6.90
2018-07-30T03:31:21.310Z,6.47
2018-07-30T03:33:48.312Z,6.80
2018-07-30T03:36:15.224Z,6.10
2018-07-30T03:38:42.282Z,6.77
2018-07-30T03:41:09.533Z,6.73
2018-07-30T03:43:36.461Z,6.90
2018-07-30T03:46:03.419Z,6.40
2018-07-30T03:48:30.376Z,7.37
2018-07-30T03:50:57.280Z,7.00
2018-07-30T03:53:24.263Z,7.23
2018-07-30T03:55:51.183Z,7.30
2018-07-30T03:58:18.109Z,7.83
2018-07-30T04:00:45.063Z,6.83
2018-07-30T04:03:11.984Z,7.00
2018-07-30T04:05:38.924Z,6.50
2018-07-30T04:08:05.840Z,6.40
2018-07-30T04:10:32.764Z,6.60
2018-07-30T04:12:59.676Z,7.10
2018-07-30T04:15:26.603Z,6.73
2018-07-30T04:17:53.502Z,6.80
2018-07-30T04:20:20.447Z,7.10
2018-07-30T04:22:47.404Z,7.87
2018-07-30T04:25:14.332Z,6.50
2018-07-30T04:27:41.279Z,7.40
2018-07-30T04:30:08.214Z,7.30
2018-07-30T04:32:35.132Z,7.30
2018-07-30T04:35:02.052Z,7.10
2018-07-30T04:37:28.933Z,7.20
2018-07-30T04:39:55.845Z,7.47
2018-07-30T04:42:22.735Z,6.97
2018-07-30T04:44:49.663Z,7.53
2018-07-30T04:47:16.553Z,7.27
2018-07-30T04:49:43.499Z,6.90
2018-07-30T04:52:10.396Z,7.73
2018-07-30T04:54:37.360Z,7.07
2018-07-30T04:57:04.382Z,6.87
2018-07-30T04:59:31.243Z,8.20
2018-07-30T05:01:58.190Z,7.20
2018-07-30T05:04:25.155Z,7.03
2018-07-30T05:06:52.179Z,7.23
2018-07-30T05:09:19.139Z,7.17
2018-07-30T05:11:46.108Z,7.07
2018-07-30T05:14:13.028Z,7.80
2018-07-30T05:16:39.956Z,7.40
2018-07-30T05:19:06.917Z,7.00
2018-07-30T05:21:33.888Z,7.20
2018-07-30T05:24:00.808Z,7.77
2018-07-30T05:26:27.761Z,8.57
2018-07-30T05:28:54.667Z,7.10
2018-07-30T05:31:21.625Z,7.97
2018-07-30T05:33:48.564Z,7.63
2018-07-30T05:36:15.611Z,7.33
2018-07-30T05:38:42.575Z,7.63
2018-07-30T05:41:09.513Z,7.40
2018-07-30T05:43:36.503Z,8.33
2018-07-30T05:46:03.679Z,6.93
2018-07-30T05:48:30.656Z,7.00
2018-07-30T05:50:57.600Z,7.03
2018-07-30T05:53:24.524Z,7.60
2018-07-30T05:55:51.530Z,7.27
2018-07-30T05:58:18.466Z,7.33
2018-07-30T06:00:45.399Z,7.53
2018-07-30T06:03:12.352Z,7.70
2018-07-30T06:05:39.399Z,7.03
2018-07-30T06:08:06.668Z,6.90
2018-07-30T06:10:33.621Z,6.60
2018-07-30T06:13:00.518Z,7.17
2018-07-30T06:15:27.461Z,6.90
2018-07-30T06:17:54.400Z,7.07
2018-07-30T06:20:21.346Z,7.50
2018-07-30T06:22:48.324Z,6.53
2018-07-30T06:25:15.390Z,7.27
2018-07-30T06:27:42.455Z,7.30
2018-07-30T06:30:09.608Z,6.80
2018-07-30T06:32:36.979Z,7.60
2018-07-30T06:35:04.351Z,6.57
2018-07-30T06:37:31.444Z,7.50
2018-07-30T06:39:58.390Z,7.10
2018-07-30T06:42:25.348Z,6.00
2018-07-30T06:44:52.329Z,5.57
2018-07-30T06:47:19.275Z,5.40
2018-07-30T06:49:46.251Z,5.87
2018-07-30T06:52:13.258Z,5.83
2018-07-30T06:54:40.187Z,5.40
2018-07-30T06:57:07.119Z,6.17
2018-07-30T06:59:34.068Z,6.27
2018-07-30T07:02:01.010Z,5.73
2018-07-30T07:04:27.962Z,5.33
2018-07-30T07:06:54.951Z,5.60
2018-07-30T07:09:21.980Z,5.27
2018-07-30T07:11:48.943Z,5.30
2018-07-30T07:14:15.957Z,4.97
2018-07-30T07:16:43.001Z,4.87
2018-07-30T07:19:09.931Z,5.03
2018-07-30T07:21:36.855Z,4.50
2018-07-30T07:24:03.805Z,4.70
2018-07-30T07:26:30.735Z,5.30
2018-07-30T07:28:57.684Z,4.90
2018-07-30T07:31:24.650Z,4.77
2018-07-30T07:33:51.649Z,4.87
2018-07-30T07:36:18.559Z,4.40
2018-07-30T07:38:45.512Z,4.83
2018-07-30T07:41:12.457Z,4.50
2018-07-30T07:43:39.560Z,4.73
2018-07-30T07:46:06.634Z,4.43
2018-07-30T07:48:33.605Z,4.10
2018-07-30T07:51:00.970Z,4.83
2018-07-30T07:53:27.702Z,4.67
2018-07-30T07:55:54.618Z,4.10
2018-07-30T07:58:21.575Z,4.50
2018-07-30T08:00:48.522Z,4.50
2018-07-30T08:03:15.456Z,4.60
2018-07-30T08:05:42.441Z,4.63
2018-07-30T08:08:09.353Z,4.70
2018-07-30T08:10:36.340Z,4.60
2018-07-30T08:13:03.280Z,4.30
2018-07-30T08:15:30.308Z,4.13
2018-07-30T08:17:57.246Z,4.03
2018-07-30T08:20:24.171Z,4.03
2018-07-30T08:22:51.133Z,4.00
2018-07-30T08:25:18.079Z,4.57
2018-07-30T08:27:45.000Z,4.00
2018-07-30T08:30:11.959Z,3.53
2018-07-30T08:32:38.902Z,3.70
2018-07-30T08:35:06.170Z,4.20
2018-07-30T08:37:33.438Z,4.40
2018-07-30T08:40:00.430Z,4.07
2018-07-30T08:42:27.408Z,4.00
2018-07-30T08:44:54.576Z,4.63
2018-07-30T08:47:21.512Z,5.00
2018-07-30T08:49:48.429Z,5.33
2018-07-30T08:52:15.364Z,4.80
2018-07-30T08:54:42.329Z,5.03
2018-07-30T08:57:09.299Z,5.03
2018-07-30T08:59:36.216Z,4.67
2018-07-30T09:02:03.150Z,4.23
2018-07-30T09:04:30.089Z,4.30
2018-07-30T09:06:57.016Z,4.07
2018-07-30T09:09:23.947Z,3.87
2018-07-30T09:11:50.840Z,8.70
2018-07-30T09:14:17.796Z,4.73
2018-07-30T09:16:44.744Z,6.97
2018-07-30T09:19:11.765Z,4.67
2018-07-30T09:21:38.728Z,4.67
2018-07-30T09:24:05.705Z,5.10
2018-07-30T09:26:32.649Z,4.23
2018-07-30T09:28:59.644Z,4.90
2018-07-30T09:31:26.607Z,5.20
2018-07-30T09:33:53.760Z,4.30
2018-07-30T09:36:22.728Z,4.40
2018-07-30T09:38:49.761Z,5.00
2018-07-30T09:41:17.054Z,6.43
2018-07-30T09:43:44.014Z,5.20
2018-07-30T09:46:11.060Z,5.53
2018-07-30T09:48:37.992Z,4.53
2018-07-30T09:51:05.223Z,5.10
2018-07-30T09:53:32.155Z,4.83
2018-07-30T09:55:59.088Z,5.13
2018-07-30T09:58:26.025Z,5.00
2018-07-30T10:00:58.688Z,4.63
2018-07-30T10:03:25.608Z,4.60
2018-07-30T10:05:52.545Z,4.80
2018-07-30T10:08:19.500Z,5.10
2018-07-30T10:10:46.614Z,5.10
2018-07-30T10:13:13.568Z,5.30
2018-07-30T10:15:40.520Z,5.20
2018-07-30T10:18:07.515Z,4.67
2018-07-30T10:20:34.420Z,4.47
2018-07-30T10:23:01.376Z,4.90
2018-07-30T10:25:28.398Z,4.40
2018-07-30T10:27:55.329Z,4.10
2018-07-30T10:30:22.271Z,4.70
2018-07-30T10:32:49.200Z,5.03
2018-07-30T10:35:16.129Z,5.20
2018-07-30T10:37:43.034Z,5.10
2018-07-30T10:40:10.194Z,4.63
2018-07-30T10:42:37.092Z,4.57
2018-07-30T10:45:04.267Z,5.00
2018-07-30T10:47:31.188Z,4.50
2018-07-30T10:49:58.131Z,4.20
2018-07-30T10:52:25.129Z,4.67
2018-07-30T10:54:52.123Z,4.73
2018-07-30T10:57:19.067Z,4.87
2018-07-30T10:59:46.065Z,4.80
2018-07-30T11:02:12.976Z,4.73
2018-07-30T11:04:41.686Z,4.50
2018-07-30T11:07:08.604Z,5.30
2018-07-30T11:09:35.549Z,4.77
2018-07-30T11:12:02.808Z,4.80
2018-07-30T11:14:29.758Z,4.70
2018-07-30T11:16:56.647Z,4.67
2018-07-30T11:19:23.589Z,4.77
2018-07-30T11:21:50.459Z,4.13
2018-07-30T11:24:17.450Z,4.27
2018-07-30T11:26:44.374Z,5.30
2018-07-30T11:29:11.305Z,5.10
2018-07-30T11:31:38.215Z,4.63
2018-07-30T11:34:05.139Z,4.43
2018-07-30T11:36:32.051Z,4.10
2018-07-30T11:38:58.967Z,5.17
2018-07-30T11:41:25.865Z,6.50
2018-07-30T11:43:53.028Z,5.00
2018-07-30T11:46:19.946Z,4.67
2018-07-30T11:48:46.923Z,6.00
2018-07-30T11:51:13.843Z,4.80
2018-07-30T11:53:40.748Z,4.90
2018-07-30T11:56:07.748Z,5.00
2018-07-30T11:58:34.634Z,4.77
2018-07-30T12:01:01.609Z,4.70
2018-07-30T12:03:28.600Z,5.57
2018-07-30T12:05:55.508Z,5.37
2018-07-30T12:08:22.437Z,5.33
2018-07-30T12:10:49.352Z,4.63
2018-07-30T12:13:16.333Z,4.70
2018-07-30T12:15:43.265Z,4.97
2018-07-30T12:18:10.181Z,5.00
2018-07-30T12:20:37.124Z,4.73
2018-07-30T12:23:04.118Z,5.03
2018-07-30T12:25:31.075Z,5.00
2018-07-30T12:27:57.979Z,5.30
2018-07-30T12:30:25.037Z,4.93
2018-07-30T12:32:51.872Z,5.00
2018-07-30T12:35:18.828Z,4.90
2018-07-30T12:37:45.841Z,5.40
2018-07-30T12:40:12.811Z,6.40
2018-07-30T12:42:39.862Z,4.90
2018-07-30T12:45:06.792Z,5.00
2018-07-30T12:47:33.747Z,5.33
2018-07-30T12:50:00.688Z,5.00
2018-07-30T12:52:27.664Z,4.90
2018-07-30T12:54:54.626Z,5.10
2018-07-30T12:57:21.569Z,5.20
2018-07-30T12:59:48.605Z,5.33
2018-07-30T13:02:15.584Z,4.90
2018-07-30T13:04:44.267Z,5.20
2018-07-30T13:07:12.540Z,5.43
2018-07-30T13:09:39.491Z,4.80
2018-07-30T13:12:06.432Z,4.73
2018-07-30T13:14:33.375Z,4.63
2018-07-30T13:17:00.267Z,5.00
2018-07-30T13:19:27.176Z,5.40
2018-07-30T13:21:54.112Z,5.10
2018-07-30T13:24:21.056Z,5.37
2018-07-30T13:26:48.038Z,4.83
2018-07-30T13:29:15.013Z,5.03
2018-07-30T13:31:41.931Z,5.30
2018-07-30T13:34:08.837Z,5.53
2018-07-30T13:36:35.824Z,5.17
2018-07-30T13:39:04.543Z,5.67
2018-07-30T13:41:31.473Z,4.73
2018-07-30T13:43:58.413Z,5.17
2018-07-30T13:46:25.353Z,5.17
2018-07-30T13:48:52.284Z,5.20
2018-07-30T13:51:19.209Z,5.40
2018-07-30T13:53:46.145Z,5.10
2018-07-30T13:56:13.100Z,4.60
2018-07-30T13:58:40.047Z,5.17
2018-07-30T14:01:06.987Z,5.20
2018-07-30T14:03:33.928Z,6.00
2018-07-30T14:06:00.875Z,5.10
2018-07-30T14:08:27.820Z,5.13
2018-07-30T14:10:54.774Z,5.00
2018-07-30T14:13:21.708Z,5.90
2018-07-30T14:15:48.684Z,5.90
2018-07-30T14:18:15.671Z,5.63
2018-07-30T14:20:42.597Z,5.50
2018-07-30T14:23:09.524Z,5.40
2018-07-30T14:25:36.448Z,4.60
2018-07-30T14:28:03.531Z,5.93
2018-07-30T14:30:30.440Z,5.70
2018-07-30T14:32:57.392Z,4.90
2018-07-30T14:35:24.468Z,4.70
2018-07-30T14:37:51.398Z,5.20
2018-07-30T14:40:18.339Z,5.03
2018-07-30T14:42:45.289Z,5.27
2018-07-30T14:45:12.188Z,4.60
2018-07-30T14:47:39.121Z,5.70
2018-07-30T14:50:06.949Z,5.40
2018-07-30T14:52:33.990Z,5.30
2018-07-30T14:55:00.903Z,5.00
2018-07-30T14:57:27.990Z,5.43
2018-07-30T14:59:55.307Z,5.40
2018-07-30T15:02:22.200Z,5.67
2018-07-30T15:04:49.105Z,5.13
2018-07-30T15:07:16.172Z,5.07
2018-07-30T15:09:43.153Z,5.17
2018-07-30T15:12:10.120Z,5.07
2018-07-30T15:14:37.031Z,4.70
2018-07-30T15:17:04.125Z,4.70
2018-07-30T15:19:31.083Z,5.30
2018-07-30T15:21:58.003Z,5.27
2018-07-30T15:24:24.948Z,5.57
2018-07-30T15:26:51.919Z,5.33
2018-07-30T15:29:18.816Z,5.13
2018-07-30T15:31:45.776Z,5.73
2018-07-30T15:34:12.735Z,5.13
2018-07-30T15:36:39.667Z,5.20
2018-07-30T15:39:08.395Z,5.07
2018-07-30T15:41:35.439Z,6.37
2018-07-30T15:44:02.700Z,5.90
2018-07-30T15:46:29.713Z,5.37
2018-07-30T15:48:56.644Z,5.17
2018-07-30T15:51:23.576Z,5.47
2018-07-30T15:53:50.514Z,4.90
2018-07-30T15:56:17.479Z,5.37
2018-07-30T15:58:44.468Z,4.70
2018-07-30T16:01:11.407Z,4.97
2018-07-30T16:03:38.335Z,5.00
2018-07-30T16:06:05.299Z,5.43
2018-07-30T16:08:32.237Z,5.10
2018-07-30T16:10:59.183Z,5.00
2018-07-30T16:13:26.132Z,4.70
2018-07-30T16:15:53.048Z,5.00
2018-07-30T16:18:20.086Z,4.80
2018-07-30T16:20:47.080Z,5.20
2018-07-30T16:23:14.107Z,5.10
2018-07-30T16:25:41.121Z,4.50
2018-07-30T16:28:08.040Z,5.23
2018-07-30T16:30:35.016Z,5.30
2018-07-30T16:33:01.892Z,4.83
2018-07-30T16:35:28.819Z,4.90
2018-07-30T16:37:55.780Z,4.83
2018-07-30T16:40:22.736Z,6.37
2018-07-30T16:42:49.693Z,5.90
2018-07-30T16:45:16.619Z,5.77
2018-07-30T16:47:43.564Z,5.10
2018-07-30T16:50:10.501Z,5.50
2018-07-30T16:52:37.445Z,5.47
2018-07-30T16:55:04.576Z,6.17
2018-07-30T16:57:31.507Z,5.93
2018-07-30T16:59:58.437Z,4.90
2018-07-30T17:02:25.375Z,5.20
2018-07-30T17:04:52.315Z,5.17
2018-07-30T17:07:19.319Z,5.30
2018-07-30T17:09:46.269Z,5.47
2018-07-30T17:12:13.239Z,5.37
2018-07-30T17:14:40.139Z,5.70
2018-07-30T17:17:07.012Z,5.50
2018-07-30T17:19:33.929Z,5.70
2018-07-30T17:22:01.017Z,5.43
2018-07-30T17:24:28.151Z,5.73
2018-07-30T17:26:55.188Z,5.70
2018-07-30T17:29:22.140Z,5.03
2018-07-30T17:31:49.083Z,5.87
2018-07-30T17:34:16.004Z,6.03
2018-07-30T17:36:42.975Z,6.97
2018-07-30T17:39:10.537Z,5.60
2018-07-30T17:41:37.493Z,5.57
2018-07-30T17:44:04.618Z,5.53
2018-07-30T17:46:31.679Z,5.67
2018-07-30T17:48:58.726Z,6.27
2018-07-30T17:51:25.631Z,5.30
2018-07-30T17:53:52.619Z,6.13
2018-07-30T17:56:19.520Z,5.73
2018-07-30T17:58:46.581Z,5.40
2018-07-30T18:01:13.508Z,6.10
2018-07-30T18:03:40.457Z,5.87
2018-07-30T18:06:07.420Z,5.47
2018-07-30T18:08:34.343Z,5.63
2018-07-30T18:11:01.320Z,6.10
2018-07-30T18:13:28.235Z,6.20
2018-07-30T18:15:55.182Z,7.13
2018-07-30T18:18:22.106Z,20.20
2018-07-30T18:20:49.175Z,25.47
2018-07-30T18:23:16.147Z,11.70
2018-07-30T18:25:43.096Z,26.10
2018-07-30T18:28:10.042Z,11.43
2018-07-30T18:30:36.999Z,8.63
2018-07-30T18:33:03.900Z,7.30
2018-07-30T18:35:30.821Z,10.30
2018-07-30T18:37:57.788Z,7.57
2018-07-30T18:40:24.964Z,9.33
2018-07-30T18:42:51.888Z,8.17
2018-07-30T18:45:18.825Z,8.80
2018-07-30T18:47:45.786Z,8.30
2018-07-30T18:50:12.735Z,6.40
2018-07-30T18:52:39.679Z,6.40
2018-07-30T18:55:06.666Z,6.60
2018-07-30T18:57:33.703Z,6.23
2018-07-30T19:00:00.615Z,6.20
2018-07-30T19:02:27.549Z,6.47
2018-07-30T19:04:55.280Z,6.43
2018-07-30T19:07:22.268Z,6.20
2018-07-30T19:09:49.250Z,6.80
2018-07-30T19:12:16.196Z,6.10
2018-07-30T19:14:43.123Z,6.83
2018-07-30T19:17:10.050Z,6.20
2018-07-30T19:19:37.007Z,6.23
2018-07-30T19:22:03.999Z,6.50
2018-07-30T19:24:30.947Z,6.27
2018-07-30T19:26:57.872Z,6.83
2018-07-30T19:29:24.847Z,6.70
2018-07-30T19:31:51.879Z,8.13
2018-07-30T19:34:18.827Z,7.87
2018-07-30T19:36:45.972Z,7.53
2018-07-30T19:39:13.699Z,7.60
2018-07-30T19:41:40.648Z,8.00
2018-07-30T19:44:07.958Z,7.67
2018-07-30T19:46:34.849Z,7.50
2018-07-30T19:49:01.849Z,8.13
2018-07-30T19:51:28.963Z,7.40
2018-07-30T19:53:55.907Z,8.00
2018-07-30T19:56:23.008Z,7.80
2018-07-30T19:58:50.068Z,7.90
2018-07-30T20:01:16.925Z,7.83
2018-07-30T20:03:44.148Z,8.17
2018-07-30T20:06:11.093Z,8.60
2018-07-30T20:08:38.030Z,8.77
2018-07-30T20:11:05.458Z,8.30
2018-07-30T20:13:32.464Z,6.80
2018-07-30T20:15:59.404Z,7.90
2018-07-30T20:18:26.349Z,7.33
2018-07-30T20:20:53.292Z,8.77
2018-07-30T20:23:20.264Z,9.90
2018-07-30T20:25:47.236Z,9.93
2018-07-30T20:28:14.239Z,9.00
2018-07-30T20:30:41.267Z,9.83
2018-07-30T20:33:08.196Z,9.47
2018-07-30T20:35:35.158Z,9.97
2018-07-30T20:38:02.144Z,10.17
2018-07-30T20:40:29.068Z,10.20
2018-07-30T20:42:55.961Z,10.10
2018-07-30T20:45:22.880Z,10.03
2018-07-30T20:47:49.796Z,10.33
2018-07-30T20:50:16.775Z,10.40
2018-07-30T20:52:43.726Z,8.60
2018-07-30T20:55:10.677Z,8.83
2018-07-30T20:57:37.629Z,7.93
2018-07-30T21:00:04.613Z,8.63
2018-07-30T21:02:31.519Z,7.60
2018-07-30T21:04:58.537Z,8.77
2018-07-30T21:07:25.499Z,7.47
2018-07-30T21:09:52.405Z,6.97
2018-07-30T21:12:19.408Z,7.10
2018-07-30T21:14:46.405Z,7.67
2018-07-30T21:17:13.343Z,7.67
2018-07-30T21:19:40.288Z,7.20
2018-07-30T21:22:07.207Z,7.33
2018-07-30T21:24:34.200Z,6.83
2018-07-30T21:27:01.182Z,6.50
2018-07-30T21:29:28.140Z,7.30
2018-07-30T21:31:55.056Z,7.73
2018-07-30T21:34:22.018Z,7.60
2018-07-30T21:36:49.071Z,7.90
2018-07-30T21:39:16.019Z,8.73
2018-07-30T21:41:42.957Z,8.07
2018-07-30T21:44:10.609Z,7.70
2018-07-30T21:46:38.417Z,8.20
2018-07-30T21:49:05.479Z,7.87
2018-07-30T21:51:32.446Z,9.23
2018-07-30T21:53:59.433Z,7.40
2018-07-30T21:56:26.336Z,7.30
2018-07-30T21:58:53.287Z,7.10
2018-07-30T22:01:20.224Z,7.10
2018-07-30T22:03:47.302Z,7.53
2018-07-30T22:06:14.344Z,7.20
2018-07-30T22:08:41.252Z,7.80
2018-07-30T22:11:08.193Z,8.23
2018-07-30T22:13:35.127Z,7.70
2018-07-30T22:16:02.060Z,7.97
2018-07-30T22:18:29.034Z,7.90
2018-07-30T22:20:55.952Z,7.93
2018-07-30T22:23:22.888Z,7.33
2018-07-30T22:25:49.800Z,8.40
2018-07-30T22:28:16.723Z,8.07
2018-07-30T22:30:44.121Z,7.93
2018-07-30T22:33:11.039Z,8.23
2018-07-30T22:35:37.949Z,7.93
2018-07-30T22:38:05.137Z,8.17
2018-07-30T22:40:32.085Z,7.97
2018-07-30T22:42:59.013Z,8.13
2018-07-30T22:45:25.935Z,8.03
2018-07-30T22:47:52.972Z,9.27
2018-07-30T22:50:19.924Z,8.37
2018-07-30T22:52:46.875Z,8.50
2018-07-30T22:55:14.067Z,8.57
2018-07-30T22:57:40.997Z,8.57
2018-07-30T23:00:07.965Z,8.90
2018-07-30T23:02:34.992Z,8.00
2018-07-30T23:05:02.059Z,7.70
2018-07-30T23:07:29.308Z,7.73
2018-07-30T23:09:56.243Z,8.10
2018-07-30T23:12:23.191Z,7.40
2018-07-30T23:14:50.105Z,7.20
2018-07-30T23:17:17.045Z,7.67
2018-07-30T23:19:43.963Z,7.40
2018-07-30T23:22:10.937Z,7.23
2018-07-30T23:24:37.898Z,7.93
2018-07-30T23:27:04.848Z,7.63
2018-07-30T23:29:31.760Z,7.90
2018-07-30T23:31:58.899Z,7.27
2018-07-30T23:34:25.829Z,7.90
2018-07-30T23:36:52.799Z,7.43
2018-07-30T23:39:19.780Z,7.47
2018-07-30T23:41:46.687Z,7.73
2018-07-30T23:44:13.750Z,7.30
2018-07-30T23:46:40.663Z,7.50
2018-07-30T23:49:07.663Z,7.30
2018-07-30T23:51:34.652Z,7.57
2018-07-30T23:54:01.584Z,7.53
2018-07-30T23:56:28.882Z,7.77
2018-07-30T23:58:55.852Z,7.50
